Hlavní strana
METAR-TAF:

METAR-TAF

Letiště :

Astrachaň, Rusko

zeměpisná šířka: 46-17N, zeměpisná délka: 048-00-23E, výška: 0 m

Aktuální stav počasí

Zpráva byla vytvořena před 36 minutami, v 12:30 UTC
Západní vítr 12 kt
Teplota 3°C
Vlhkost vzduchu 87%
Tlak 1019 hPa
Viditelnost: 8000 m
Oblačno až skoro zataženo ve výšce 1100 ft

METAR: URWA 251230Z 26006MPS 8000 BKN011 03/01 Q1019 R27/290150 NOSIG RMK QFE766/1022

Čas: 17:06 (13:06 UTC)

Předpověď počasí

Zpráva byla vytvořena před 1 hodinou a 29 minutami, v 11:37 UTC
Předpověď platná od 25 v 12 UTC do 25 v 21 UTC
Západní vítr 14 kt s nárazy do 23 kt
Viditelnost 10 km a více
Zataženo ve výšce 1200 ft
Dočasný
od 25 v 12 UTC do 25 v 18 UTC
Viditelnost: 6000 m
Oblačno až skoro zataženo ve výšce 800 ft
slabý déšť

TAF: URWA 251137Z 2512/2521 27007G12MPS 9999 OVC012 TEMPO 2512/2518 6000 -RA BKN008

Stav a předpovědi počasí z více než 4 000 letišť (zprávy METAR a TAF).

Červené a žluté tečky na mapě představují dostupné meteorologické stanice.

Když kurzor umístíte na tečku, zobrazí se název stanice.

Pak kliknutím zobrazíte stav a předpověď počasí.

Chcete-li změnit mapu, kliknutím na zelené tlačítko se znaménkem +mapu přiblížíte, kliknutím na zelené tlačítko se znaménkem – mapu oddálíte a kliknutím na zelené šipky přejdete na sousední mapy.


METAR-TAF: